createdAt,value
2022-10-30T00:01:01.605Z,81.66
2022-10-30T00:03:29.612Z,81.13
2022-10-30T00:05:57.643Z,81.55
2022-10-30T00:08:26.571Z,81.64
2022-10-30T00:10:55.931Z,81.79
2022-10-30T00:13:23.965Z,82.07
2022-10-30T00:15:54.629Z,82.13
2022-10-30T00:18:22.657Z,82.07
2022-10-30T00:20:50.914Z,82.25
2022-10-30T00:23:20.287Z,82.58
2022-10-30T00:25:48.374Z,82.96
2022-10-30T00:28:17.707Z,83.22
2022-10-30T00:30:45.688Z,82.95
2022-10-30T00:33:13.634Z,82.96
2022-10-30T00:35:49.732Z,83.08
2022-10-30T00:38:17.738Z,82.32
2022-10-30T00:40:45.728Z,81.04
2022-10-30T00:46:19.263Z,79.49
2022-10-30T00:48:55.606Z,79.86
2022-10-30T00:51:24.525Z,80.08
2022-10-30T00:53:54.387Z,80.62
2022-10-30T00:56:24.451Z,81.13
2022-10-30T00:58:58.307Z,81.54
2022-10-30T01:01:30.554Z,82.02
2022-10-30T01:04:03.431Z,82.57
2022-10-30T01:06:36.679Z,82.94
2022-10-30T01:09:05.940Z,83.35
2022-10-30T01:11:34.017Z,83.48
2022-10-30T01:14:08.154Z,83.76
2022-10-30T01:17:03.760Z,84.21
2022-10-30T01:19:45.199Z,84.55
2022-10-30T01:22:33.614Z,84.92
2022-10-30T01:25:17.500Z,85.06
2022-10-30T01:28:00.109Z,85.21
2022-10-30T01:30:48.587Z,85.08
2022-10-30T01:33:36.906Z,85.17
2022-10-30T01:36:16.092Z,85.19
2022-10-30T01:38:50.307Z,85.09
2022-10-30T01:41:18.479Z,84.81
2022-10-30T01:43:51.128Z,84.43
2022-10-30T01:46:52.309Z,83.96
2022-10-30T01:49:46.070Z,83.96
2022-10-30T01:52:23.968Z,83.83
2022-10-30T01:55:03.673Z,83.57
2022-10-30T01:57:41.666Z,83.44
2022-10-30T02:00:14.913Z,83.36
2022-10-30T02:02:43.644Z,82.91
2022-10-30T02:05:22.711Z,82.80
2022-10-30T02:07:50.713Z,81.79
2022-10-30T02:10:18.817Z,81.54
2022-10-30T02:12:46.987Z,81.89
2022-10-30T02:15:15.685Z,81.79
2022-10-30T02:17:43.831Z,81.96
2022-10-30T02:20:18.599Z,81.96
2022-10-30T02:22:47.461Z,81.50
2022-10-30T02:25:16.604Z,81.27
2022-10-30T02:27:44.594Z,81.38
2022-10-30T02:30:13.769Z,81.66
2022-10-30T02:32:41.776Z,81.89
2022-10-30T02:35:10.554Z,81.82
2022-10-30T02:37:40.198Z,81.84
2022-10-30T02:40:09.938Z,81.83
2022-10-30T02:42:37.934Z,81.87
2022-10-30T02:45:06.799Z,81.64
2022-10-30T02:47:34.818Z,81.56
2022-10-30T02:50:02.751Z,81.50
2022-10-30T02:52:30.743Z,81.58
2022-10-30T02:55:00.041Z,81.39
2022-10-30T02:57:28.054Z,81.40
2022-10-30T02:59:56.031Z,81.55
2022-10-30T03:02:24.150Z,81.42
2022-10-30T03:04:52.145Z,80.97
2022-10-30T03:07:20.175Z,80.64
2022-10-30T03:09:48.494Z,80.79
2022-10-30T03:12:17.853Z,80.78
2022-10-30T03:14:45.815Z,80.76
2022-10-30T03:17:13.858Z,81.04
2022-10-30T03:19:41.939Z,81.31
2022-10-30T03:22:10.000Z,81.44
2022-10-30T03:24:38.240Z,81.66
2022-10-30T03:27:06.512Z,81.66
2022-10-30T03:29:35.851Z,81.79
2022-10-30T03:32:03.792Z,82.04
2022-10-30T03:34:31.805Z,82.14
2022-10-30T03:36:59.992Z,82.30
2022-10-30T03:39:27.983Z,82.36
2022-10-30T03:41:56.036Z,82.42
2022-10-30T03:44:24.034Z,82.50
2022-10-30T03:46:53.379Z,82.42
2022-10-30T03:49:21.392Z,82.55
2022-10-30T03:51:49.355Z,82.53
2022-10-30T03:54:18.383Z,82.50
2022-10-30T03:56:46.562Z,82.28
2022-10-30T03:59:14.537Z,82.19
2022-10-30T04:01:42.671Z,82.09
2022-10-30T04:04:12.151Z,81.95
2022-10-30T04:06:40.078Z,81.76
2022-10-30T04:09:08.046Z,81.26
2022-10-30T04:11:36.001Z,81.12
2022-10-30T04:14:03.975Z,80.97
2022-10-30T04:16:31.963Z,80.88
2022-10-30T04:18:59.959Z,80.76
2022-10-30T04:21:29.278Z,80.90
2022-10-30T04:23:57.233Z,80.96
2022-10-30T04:26:25.210Z,81.15
2022-10-30T04:28:53.198Z,80.76
2022-10-30T04:31:21.127Z,79.73
2022-10-30T04:33:49.057Z,79.71
2022-10-30T04:36:18.050Z,80.02
2022-10-30T04:38:47.367Z,80.46
2022-10-30T04:41:15.293Z,80.68
2022-10-30T04:43:43.267Z,80.69
2022-10-30T04:46:11.268Z,80.63
2022-10-30T04:48:39.243Z,80.79
2022-10-30T04:51:08.240Z,80.64
2022-10-30T04:53:36.306Z,80.54
2022-10-30T04:56:06.714Z,80.46
2022-10-30T04:58:34.665Z,80.21
2022-10-30T05:01:03.648Z,79.18
2022-10-30T05:03:31.986Z,79.80
2022-10-30T05:06:03.445Z,80.45
2022-10-30T05:08:31.768Z,80.52
2022-10-30T05:11:00.295Z,80.69
2022-10-30T05:13:29.641Z,81.03
2022-10-30T05:15:57.582Z,81.15
2022-10-30T05:18:25.629Z,81.20
2022-10-30T05:20:53.612Z,81.20
2022-10-30T05:23:21.609Z,81.13
2022-10-30T05:25:49.549Z,81.03
2022-10-30T05:28:17.676Z,80.93
2022-10-30T05:30:47.011Z,81.09
2022-10-30T05:33:17.465Z,81.17
2022-10-30T05:35:45.607Z,81.11
2022-10-30T05:38:14.509Z,80.77
2022-10-30T05:40:42.497Z,80.99
2022-10-30T05:43:10.472Z,80.56
2022-10-30T05:45:38.502Z,80.60
2022-10-30T05:48:08.633Z,80.39
2022-10-30T05:50:36.939Z,80.21
2022-10-30T05:53:06.616Z,79.48
2022-10-30T05:55:34.873Z,79.08
2022-10-30T05:58:06.457Z,79.24
2022-10-30T06:00:36.917Z,79.47
2022-10-30T06:03:08.582Z,79.53
2022-10-30T06:05:38.239Z,79.86
2022-10-30T06:08:08.256Z,80.06
2022-10-30T06:10:36.823Z,79.42
2022-10-30T06:13:07.543Z,78.68
2022-10-30T06:15:35.845Z,78.12
2022-10-30T06:18:03.985Z,78.78
2022-10-30T06:20:33.301Z,79.08
2022-10-30T06:23:03.831Z,79.57
2022-10-30T06:25:40.763Z,79.98
2022-10-30T06:28:11.237Z,79.91
2022-10-30T06:30:39.291Z,80.21
2022-10-30T06:33:08.123Z,80.59
2022-10-30T06:35:37.443Z,81.05
2022-10-30T06:38:05.585Z,81.26
2022-10-30T06:40:34.673Z,81.43
2022-10-30T06:43:02.977Z,81.24
2022-10-30T06:45:31.192Z,81.18
2022-10-30T06:48:01.907Z,81.12
2022-10-30T06:50:30.287Z,80.25
2022-10-30T06:52:59.612Z,79.31
2022-10-30T06:55:27.614Z,78.73
2022-10-30T06:57:57.351Z,77.82
2022-10-30T07:00:25.918Z,76.58
2022-10-30T07:03:02.265Z,75.54
2022-10-30T07:05:30.859Z,75.43
2022-10-30T07:08:00.465Z,75.65
2022-10-30T07:10:28.466Z,75.34
2022-10-30T07:12:58.830Z,75.63
2022-10-30T07:15:27.911Z,75.69
2022-10-30T07:17:57.633Z,75.64
2022-10-30T07:20:27.670Z,75.78
2022-10-30T07:22:55.852Z,75.91
2022-10-30T07:25:25.259Z,76.11
2022-10-30T07:27:55.562Z,76.38
2022-10-30T07:33:02.445Z,76.12
2022-10-30T07:35:32.363Z,75.97
2022-10-30T07:38:04.476Z,76.23
2022-10-30T07:40:34.478Z,76.44
2022-10-30T07:43:04.606Z,76.48
2022-10-30T07:45:33.305Z,76.35
2022-10-30T07:48:01.872Z,76.31
2022-10-30T07:50:30.360Z,75.77
2022-10-30T07:52:58.468Z,75.21
2022-10-30T07:55:26.590Z,74.43
2022-10-30T07:57:56.254Z,74.62
2022-10-30T08:00:24.774Z,74.57
2022-10-30T08:02:56.948Z,74.07
2022-10-30T08:05:28.849Z,74.64
2022-10-30T08:07:59.178Z,74.99
2022-10-30T08:10:27.927Z,75.40
2022-10-30T08:12:57.337Z,75.07
2022-10-30T08:15:25.585Z,75.45
2022-10-30T08:17:54.109Z,75.46
2022-10-30T08:20:24.560Z,75.74
2022-10-30T08:22:54.326Z,75.94
2022-10-30T08:25:25.814Z,76.01
2022-10-30T08:27:59.143Z,76.37
2022-10-30T08:30:30.223Z,76.50
2022-10-30T08:33:00.029Z,76.83
2022-10-30T08:35:29.059Z,76.74
2022-10-30T08:37:57.557Z,76.77
2022-10-30T08:40:27.485Z,76.87
2022-10-30T08:42:58.794Z,76.86
2022-10-30T08:45:30.864Z,76.19
2022-10-30T08:48:01.192Z,74.82
2022-10-30T08:50:30.138Z,73.36
2022-10-30T08:53:01.971Z,72.15
2022-10-30T08:55:31.013Z,70.94
2022-10-30T08:58:00.735Z,69.99
2022-10-30T09:00:29.409Z,69.36
2022-10-30T09:02:58.205Z,69.07
2022-10-30T09:05:26.557Z,68.10
2022-10-30T09:07:58.221Z,67.41
2022-10-30T09:10:26.474Z,67.26
2022-10-30T09:12:57.723Z,66.44
2022-10-30T09:15:28.328Z,66.09
2022-10-30T09:18:01.257Z,65.69
2022-10-30T09:20:31.247Z,65.63
2022-10-30T09:22:59.438Z,65.67
2022-10-30T09:25:28.043Z,65.16
2022-10-30T09:27:56.078Z,64.60
2022-10-30T09:30:26.108Z,63.86
2022-10-30T09:32:58.601Z,63.85
2022-10-30T09:35:27.495Z,63.26
2022-10-30T09:37:56.715Z,63.19
2022-10-30T09:40:42.804Z,62.22
2022-10-30T09:43:28.820Z,62.27
2022-10-30T09:46:21.947Z,61.99
2022-10-30T09:49:11.428Z,61.30
2022-10-30T09:52:06.054Z,60.82
2022-10-30T09:54:56.614Z,60.75
2022-10-30T09:57:40.645Z,60.95
2022-10-30T10:00:13.761Z,60.98
2022-10-30T10:02:59.979Z,60.09
2022-10-30T10:05:39.449Z,59.13
2022-10-30T10:08:16.405Z,58.82
2022-10-30T10:10:48.905Z,59.46
2022-10-30T10:13:31.956Z,59.41
2022-10-30T10:16:12.967Z,59.53
2022-10-30T10:18:48.071Z,57.75
2022-10-30T10:21:26.032Z,57.69
2022-10-30T10:23:57.072Z,57.58
2022-10-30T10:26:32.450Z,57.33
2022-10-30T10:29:28.897Z,57.36
2022-10-30T10:32:18.669Z,57.20
2022-10-30T10:35:07.757Z,57.21
2022-10-30T10:37:45.315Z,57.36
2022-10-30T10:40:38.526Z,56.51
2022-10-30T10:43:25.617Z,56.92
2022-10-30T10:46:26.275Z,57.09
2022-10-30T10:49:14.393Z,57.31
2022-10-30T10:51:50.460Z,56.64
2022-10-30T10:54:25.964Z,54.94
2022-10-30T10:56:54.421Z,54.37
2022-10-30T10:59:33.219Z,55.22
2022-10-30T11:02:34.309Z,55.26
2022-10-30T11:05:13.225Z,55.60
2022-10-30T11:07:49.390Z,55.72
2022-10-30T11:10:21.103Z,55.73
2022-10-30T11:12:49.279Z,55.95
2022-10-30T11:15:32.375Z,55.72
2022-10-30T11:18:03.559Z,55.29
2022-10-30T11:20:43.493Z,55.52
2022-10-30T11:23:40.479Z,55.35
2022-10-30T11:26:34.926Z,54.44
2022-10-30T11:29:13.497Z,53.98
2022-10-30T11:31:43.953Z,53.97
2022-10-30T11:34:26.410Z,53.86
2022-10-30T11:36:55.662Z,53.40
2022-10-30T11:39:27.275Z,53.42
2022-10-30T11:42:04.694Z,53.48
2022-10-30T11:44:38.756Z,52.61
2022-10-30T11:47:09.816Z,52.09
2022-10-30T11:49:47.390Z,51.59
2022-10-30T11:52:18.946Z,51.47
2022-10-30T11:54:52.926Z,51.70
2022-10-30T11:57:30.427Z,51.50
2022-10-30T12:00:04.629Z,51.92
2022-10-30T12:02:43.870Z,49.79
2022-10-30T12:05:34.216Z,50.45
2022-10-30T12:08:21.899Z,51.23
2022-10-30T12:11:01.551Z,50.99
2022-10-30T12:13:38.690Z,51.70
2022-10-30T12:16:20.050Z,51.76
2022-10-30T12:19:03.597Z,51.80
2022-10-30T12:21:39.779Z,50.93
2022-10-30T12:24:18.939Z,51.79
2022-10-30T12:26:53.636Z,51.45
2022-10-30T12:29:41.704Z,50.26
2022-10-30T12:32:20.961Z,47.11
2022-10-30T12:35:00.501Z,46.50
2022-10-30T12:37:34.901Z,46.63
2022-10-30T12:40:13.362Z,47.36
2022-10-30T12:42:55.220Z,48.41
2022-10-30T12:45:32.369Z,48.72
2022-10-30T12:48:09.662Z,49.38
2022-10-30T12:50:45.606Z,50.43
2022-10-30T12:53:30.040Z,50.56
2022-10-30T12:56:07.279Z,51.21
2022-10-30T12:58:47.874Z,51.67
2022-10-30T13:01:28.833Z,52.04
2022-10-30T13:04:10.396Z,52.65
2022-10-30T13:06:47.248Z,52.89
2022-10-30T13:09:24.802Z,53.11
2022-10-30T13:11:59.694Z,52.73
2022-10-30T13:14:38.720Z,53.18
2022-10-30T13:17:12.584Z,53.41
2022-10-30T13:19:42.661Z,53.42
2022-10-30T13:22:20.991Z,52.84
2022-10-30T13:25:03.738Z,53.21
2022-10-30T13:27:46.479Z,53.03
2022-10-30T13:30:20.321Z,52.70
2022-10-30T13:33:08.611Z,53.29
2022-10-30T13:35:45.896Z,53.65
2022-10-30T13:38:44.198Z,53.62
2022-10-30T13:41:27.962Z,54.24
2022-10-30T13:44:12.833Z,54.46
2022-10-30T13:47:06.017Z,54.34
2022-10-30T13:50:03.465Z,54.33
2022-10-30T13:52:36.516Z,54.55
2022-10-30T13:55:15.405Z,54.48
2022-10-30T13:57:51.025Z,54.71
2022-10-30T14:00:22.394Z,53.82
2022-10-30T14:03:16.366Z,54.27
2022-10-30T14:05:52.255Z,54.83
2022-10-30T14:08:33.959Z,55.12
2022-10-30T14:11:05.621Z,55.42
2022-10-30T14:13:50.262Z,56.00
2022-10-30T14:16:43.114Z,56.23
2022-10-30T14:19:13.307Z,56.44
2022-10-30T14:21:44.764Z,56.72
2022-10-30T14:24:17.965Z,56.89
2022-10-30T14:26:55.794Z,57.11
2022-10-30T14:29:49.649Z,57.27
2022-10-30T14:32:49.702Z,57.85
2022-10-30T14:35:41.321Z,58.22
2022-10-30T14:38:36.476Z,58.65
2022-10-30T14:41:28.621Z,59.25
2022-10-30T14:44:44.159Z,59.75
2022-10-30T14:47:55.521Z,60.29
2022-10-30T14:51:02.193Z,60.65
2022-10-30T14:53:50.237Z,61.23
2022-10-30T14:56:36.364Z,61.38
2022-10-30T14:59:23.229Z,62.03
2022-10-30T15:02:21.744Z,62.13
2022-10-30T15:05:28.729Z,62.52
2022-10-30T15:08:20.892Z,63.33
2022-10-30T15:11:11.793Z,63.66
2022-10-30T15:13:51.398Z,63.85
2022-10-30T15:16:22.807Z,64.22
2022-10-30T15:19:00.120Z,64.62
2022-10-30T15:21:33.292Z,64.97
2022-10-30T15:24:03.335Z,65.23
2022-10-30T15:26:37.372Z,66.00
2022-10-30T15:29:07.836Z,66.07
2022-10-30T15:31:35.754Z,66.63
2022-10-30T15:34:03.706Z,66.79
2022-10-30T15:36:43.011Z,67.24
2022-10-30T15:39:15.826Z,67.70
2022-10-30T15:41:48.808Z,68.05
2022-10-30T15:44:22.238Z,68.41
2022-10-30T15:46:52.989Z,69.00
2022-10-30T15:49:31.296Z,69.57
2022-10-30T15:52:01.073Z,70.06
2022-10-30T15:54:32.608Z,70.10
2022-10-30T15:57:42.828Z,70.31
2022-10-30T15:59:55.620Z,70.94
2022-10-30T16:02:26.774Z,71.53
2022-10-30T16:04:55.092Z,71.81
2022-10-30T16:07:26.138Z,71.94
2022-10-30T16:09:57.997Z,72.05
2022-10-30T16:12:28.897Z,72.20
2022-10-30T16:14:58.833Z,72.50
2022-10-30T16:17:28.030Z,72.73
2022-10-30T16:20:03.000Z,72.69
2022-10-30T16:22:38.993Z,72.94
2022-10-30T16:25:12.809Z,73.07
2022-10-30T16:27:46.216Z,73.38
2022-10-30T16:30:17.204Z,73.78
2022-10-30T16:32:52.223Z,74.03
2022-10-30T16:35:24.250Z,74.06
2022-10-30T16:37:53.278Z,74.06
2022-10-30T16:40:28.285Z,74.08
2022-10-30T16:42:59.383Z,74.11
2022-10-30T16:45:50.974Z,74.06
2022-10-30T16:48:27.932Z,74.28
2022-10-30T16:51:04.665Z,74.38
2022-10-30T16:53:33.421Z,74.56
2022-10-30T16:56:03.465Z,74.82
2022-10-30T16:58:32.854Z,74.96
2022-10-30T17:01:07.295Z,75.17
2022-10-30T17:03:41.005Z,75.47
2022-10-30T17:06:29.384Z,75.69
2022-10-30T17:09:01.127Z,76.08
2022-10-30T17:11:41.892Z,76.35
2022-10-30T17:14:22.004Z,76.57
2022-10-30T17:16:56.178Z,76.83
2022-10-30T17:19:48.311Z,77.02
2022-10-30T17:22:21.406Z,77.23
2022-10-30T17:24:49.550Z,77.32
2022-10-30T17:27:47.728Z,77.81
2022-10-30T17:30:40.371Z,78.03
2022-10-30T17:33:28.382Z,78.52
2022-10-30T17:35:56.374Z,79.03
2022-10-30T17:38:24.409Z,79.33
2022-10-30T17:40:52.486Z,79.66
2022-10-30T17:43:26.375Z,80.07
2022-10-30T17:45:54.280Z,80.14
2022-10-30T17:48:26.560Z,80.31
2022-10-30T17:50:54.492Z,80.52
2022-10-30T17:53:25.616Z,80.69
2022-10-30T17:56:02.288Z,81.02
2022-10-30T17:58:31.887Z,81.06
2022-10-30T18:01:00.559Z,81.29
2022-10-30T18:03:28.906Z,81.50
2022-10-30T18:05:58.604Z,81.69
2022-10-30T18:08:26.522Z,81.95
2022-10-30T18:10:54.693Z,82.06
2022-10-30T18:13:22.685Z,82.18
2022-10-30T18:15:58.130Z,82.33
2022-10-30T18:18:26.123Z,82.48
2022-10-30T18:20:54.066Z,82.83
2022-10-30T18:23:51.414Z,83.03
2022-10-30T18:26:17.317Z,83.17
2022-10-30T18:28:45.843Z,83.29
2022-10-30T18:31:18.234Z,83.33
2022-10-30T18:33:46.441Z,83.60
2022-10-30T18:36:16.177Z,83.68
2022-10-30T18:38:44.793Z,84.02
2022-10-30T18:41:17.738Z,84.07
2022-10-30T18:43:47.137Z,84.28
2022-10-30T18:46:17.478Z,84.51
2022-10-30T18:48:45.979Z,84.75
2022-10-30T18:51:19.729Z,85.00
2022-10-30T18:53:52.386Z,85.17
2022-10-30T18:56:22.445Z,85.46
2022-10-30T18:58:54.844Z,85.63
2022-10-30T19:01:28.144Z,85.52
2022-10-30T19:03:56.254Z,85.66
2022-10-30T19:06:25.505Z,85.89
2022-10-30T19:08:53.438Z,85.99
2022-10-30T19:11:25.050Z,86.23
2022-10-30T19:13:54.600Z,86.41
2022-10-30T19:16:25.594Z,86.53
2022-10-30T19:18:55.159Z,86.53
2022-10-30T19:21:26.011Z,86.56
2022-10-30T19:23:55.496Z,86.38
2022-10-30T19:26:23.880Z,86.50
2022-10-30T19:28:51.777Z,86.46
2022-10-30T19:31:21.174Z,86.20
2022-10-30T19:33:53.153Z,86.08
2022-10-30T19:36:33.571Z,85.86
2022-10-30T19:39:07.447Z,85.90
2022-10-30T19:41:36.990Z,85.58
2022-10-30T19:44:05.728Z,85.59
2022-10-30T19:46:33.792Z,85.42
2022-10-30T19:49:13.566Z,85.34
2022-10-30T19:51:42.914Z,85.29
2022-10-30T19:54:10.849Z,85.32
2022-10-30T19:56:38.889Z,85.26
2022-10-30T19:59:10.660Z,85.23
2022-10-30T20:01:38.776Z,85.24
2022-10-30T20:04:06.843Z,85.31
2022-10-30T20:06:34.838Z,85.43
2022-10-30T20:09:05.406Z,85.38
2022-10-30T20:11:33.409Z,85.40
2022-10-30T20:14:01.372Z,85.30
2022-10-30T20:16:29.398Z,85.16
2022-10-30T20:18:57.387Z,85.32
2022-10-30T20:21:28.227Z,85.45
2022-10-30T20:23:56.245Z,85.57
2022-10-30T20:26:30.134Z,85.46
2022-10-30T20:29:00.403Z,85.45
2022-10-30T20:31:28.500Z,85.34
2022-10-30T20:33:56.603Z,85.17
2022-10-30T20:36:24.560Z,85.04
2022-10-30T20:38:52.483Z,84.80
2022-10-30T20:41:24.127Z,84.70
2022-10-30T20:43:53.471Z,84.51
2022-10-30T20:46:22.209Z,84.23
2022-10-30T20:48:50.498Z,84.05
2022-10-30T20:51:18.502Z,84.12
2022-10-30T20:53:46.627Z,84.13
2022-10-30T20:56:14.644Z,84.00
2022-10-30T20:58:43.288Z,83.70
2022-10-30T21:01:13.979Z,84.09
2022-10-30T21:03:42.075Z,83.88
2022-10-30T21:06:10.134Z,83.78
2022-10-30T21:08:38.572Z,83.57
2022-10-30T21:11:08.199Z,83.38
2022-10-30T21:13:37.454Z,83.19
2022-10-30T21:16:09.160Z,82.90
2022-10-30T21:18:38.542Z,82.79
2022-10-30T21:21:11.422Z,82.49
2022-10-30T21:23:39.565Z,82.40
2022-10-30T21:26:10.852Z,82.44
2022-10-30T21:28:39.329Z,82.51
2022-10-30T21:31:11.459Z,82.66
2022-10-30T21:33:41.282Z,82.60
2022-10-30T21:36:14.336Z,82.44
2022-10-30T21:38:44.368Z,82.39
2022-10-30T21:41:14.131Z,82.58
2022-10-30T21:43:42.486Z,82.28
2022-10-30T21:46:13.367Z,82.28
2022-10-30T21:48:42.724Z,82.42
2022-10-30T21:51:13.473Z,82.48
2022-10-30T21:53:42.374Z,82.58
2022-10-30T21:56:13.566Z,82.78
2022-10-30T21:58:42.129Z,82.73
2022-10-30T22:01:16.595Z,82.50
2022-10-30T22:03:46.659Z,82.23
2022-10-30T22:06:17.933Z,82.31
2022-10-30T22:08:47.358Z,82.39
2022-10-30T22:11:16.173Z,82.20
2022-10-30T22:13:44.371Z,82.15
2022-10-30T22:16:15.525Z,81.77
2022-10-30T22:18:44.924Z,81.47
2022-10-30T22:21:14.362Z,81.40
2022-10-30T22:23:43.590Z,81.08
2022-10-30T22:26:15.442Z,80.82
2022-10-30T22:28:44.593Z,80.50
2022-10-30T22:31:15.893Z,80.34
2022-10-30T22:33:45.913Z,79.82
2022-10-30T22:36:17.702Z,79.70
2022-10-30T22:38:46.838Z,79.58
2022-10-30T22:41:18.455Z,79.40
2022-10-30T22:43:49.797Z,79.34
2022-10-30T22:46:19.857Z,78.98
2022-10-30T22:48:49.314Z,78.59
2022-10-30T22:51:20.277Z,78.22
2022-10-30T22:53:57.128Z,78.41
2022-10-30T22:56:27.111Z,78.36
2022-10-30T22:58:56.344Z,78.11
2022-10-30T23:01:26.955Z,77.60
2022-10-30T23:04:00.037Z,77.13
2022-10-30T23:06:30.965Z,77.37
2022-10-30T23:09:01.581Z,77.84
2022-10-30T23:11:30.929Z,78.31
2022-10-30T23:13:59.091Z,78.77
2022-10-30T23:16:28.068Z,78.94
2022-10-30T23:18:59.458Z,78.75
2022-10-30T23:21:30.919Z,79.01
2022-10-30T23:24:00.029Z,79.03
2022-10-30T23:26:31.825Z,79.35
2022-10-30T23:29:01.348Z,79.26
2022-10-30T23:31:33.379Z,78.92
2022-10-30T23:34:07.121Z,78.87
2022-10-30T23:36:35.251Z,78.75
2022-10-30T23:39:06.115Z,78.41
2022-10-30T23:41:34.926Z,78.34
2022-10-30T23:44:06.608Z,78.37
2022-10-30T23:46:36.395Z,78.33
2022-10-30T23:49:06.445Z,78.30
2022-10-30T23:51:34.639Z,77.95
2022-10-30T23:54:02.868Z,77.53
2022-10-30T23:56:31.188Z,77.66
2022-10-30T23:58:59.571Z,77.76
